Aviation Digital Data Service (ADDS)

Output produced by METARs form (1339 UTC 26 May 2018)
found at http://www.aviationweather.gov/adds/metars/
 
KMAF 261328Z 2613/2712 17007KT P6SM FEW250 
     FM261800 19008G18KT P6SM SCT060 
     FM270200 16009KT P6SM FEW200
       
KMBG 261131Z 2612/2712 VRB04KT P6SM SKC 
     FM261800 14007KT P6SM SKC 
     FM270500 11011KT P6SM FEW250 
     FM270800 12010KT P6SM FEW250 WS020/17035KT 
     FM271100 17009KT P6SM SCT200 WS015/19025KT
       
KMBS 261127Z 2612/2712 20006KT P6SM VCSH SCT080 BKN120 
     FM261500 22008KT P6SM VCTS SCT050CB SCT100 BKN200 
     FM261900 18008KT P6SM VCTS BKN050CB BKN100 BKN200 
     TEMPO 2619/2622 6SM -TSRA BKN040CB OVC080 
     FM270100 20004KT P6SM SCT150 
     FM270800 VRB03KT 6SM BR SCT250
       
KMCB 261120Z 2612/2712 00000KT P6SM SKC 
     FM261400 00000KT P6SM VCTS BKN020CB BKN200 
     TEMPO 2616/2620 4SM TSRA BKN025CB 
     FM262000 00000KT P6SM VCTS BKN030CB BKN200 
     FM270300 15004KT P6SM BKN040 BKN250
       
KMCC 261135Z 2612/2712 19006KT P6SM VCSH BKN070 OVC100 
     TEMPO 2614/2616 BKN025 
     FM270300 21005KT P6SM FEW250
       
KMCE 261120Z 2612/2712 34009KT P6SM BKN070
       
TAF KMCF 250800Z 2508/2614 07006KT 9999 BKN050 QNH2999INS 
     BECMG 2515/2516 13006KT 8000 -SHRA OVC030 QNH2992INS 
     TEMPO 2520/2523 13015G25KT 4800 -TSRA OVC020CB 
     BECMG 2602/2603 14006KT 9999 NSW BKN015 QNH2990INS 
     BECMG 2609/2610 09006KT 8000 -SHRA OVC008 QNH2991INS TX30/2521Z TN20/2512Z LAST NO AMDS AFT 2510 NEXT 2816
       
KMCI 261120Z 2612/2712 24005KT P6SM FEW250
       
KMCK 261120Z 2612/2712 VRB03KT P6SM SKC 
     FM261700 17011KT P6SM SKC 
     FM262200 16015G23KT P6SM SKC 
     FM270300 15010KT P6SM SKC 
     FM270500 16010KT P6SM FEW250 WS020/17040KT
       
KMCN 261120Z 2612/2712 VRB03KT 1SM BR OVC002 
     FM261300 18004KT P6SM SCT005 BKN015 
     FM261500 18005KT P6SM SCT015 BKN025 
     FM261800 18005KT P6SM VCSH SCT025 SCT040 BKN120 
     TEMPO 2618/2622 VRB15G25KT 3SM TSRA BKN025CB 
     FM270300 VRB03KT P6SM SCT040 BKN200 
     FM271000 VRB03KT P6SM SCT005 BKN080 OVC150
       
KMCO 261127Z 2612/2718 09006KT P6SM FEW025 BKN250 
     FM261400 13010KT P6SM SCT025 SCT100 OVC250 
     FM261700 12012KT P6SM -RA VCSH SCT025 BKN080 OVC150 
     TEMPO 2618/2622 3SM SHRA BKN025 
     FM270100 12009KT P6SM VCSH SCT025 BKN100 OVC200 
     FM270800 12011KT P6SM VCSH SCT020 OVC070
       
KMCW 261120Z 2612/2712 VRB05KT P6SM SKC
       
KMDT 261209Z 2612/2712 31003KT P6SM SCT060 
     FM261500 26007KT P6SM VCSH BKN050 
     FM270500 24005KT 5SM -SHRA BR BKN040
       
KMDW 261122Z 2612/2718 24009KT P6SM SCT050 SCT250 
     FM270000 14008KT P6SM SCT250 
     FM270800 24005KT P6SM FEW250
       
KMEI 261146Z 2612/2712 00000KT 3SM BR OVC002 
     FM261400 18003KT P6SM BKN015 
     FM261600 18005KT P6SM VCSH SCT035 
     FM261900 17005KT 6SM SHRA VCTS FEW025 BKN040CB 
     FM270200 VRB03KT P6SM FEW025 SCT050
       
KMEM 261324Z 2613/2718 18004KT P6SM SCT007 BKN150 
     FM261400 19004KT P6SM SCT015 BKN150 
     TEMPO 2614/2615 BKN015 
     FM261600 18005KT P6SM VCTS FEW035CB BKN045 
     FM270300 VRB03KT P6SM SCT060 BKN250
       
KMER 261120Z 2612/2712 34009KT P6SM BKN070 AMD NOT SKED
       
KMFE 261120Z 2612/2712 14005KT P6SM FEW015 
     FM261500 16008KT P6SM SCT040 
     FM262100 12013KT P6SM FEW050 
     FM270300 14008KT P6SM FEW015
       
KMFR 261120Z 2612/2712 32004KT P6SM SCT020 OVC035 
     FM261400 VRB02KT P6SM SCT015 BKN025 
     FM261600 30007KT P6SM SCT040 
     FM270400 VRB02KT P6SM SCT025
       
TAF KMGE 261300Z 2613/2719 16006KT 9999 FEW250 QNH2991INS 
     BECMG 2614/2615 15006KT 9999 SCT025 BKN050 QNH2987INS 
     TEMPO 2617/2622 17012G18KT 6000 -TSRA BKN035CB 
     BECMG 2708/2709 05009KT 4800 BR BKN010 BKN030 QNH2985INS 
     TEMPO 2708/2713 1600 BR BKN005 
     BECMG 2714/2715 09009KT 9999 NSW BKN030 BKN060 QNH2989INS TX31/2618Z TN20/2613Z
       
KMGM 261254Z 2613/2712 13004KT P6SM SCT003 
     FM261500 13005KT P6SM BKN020 
     FM261800 14006KT P6SM VCTS BKN045CB 
     FM270000 12003KT P6SM SCT080 OVC250
       
KMGW 261124Z 2612/2712 24002KT P6SM SCT080 
     FM262200 22005KT P6SM BKN080 
     FM270200 VRB03KT P6SM -RA VCTS BKN060CB 
     FM270600 VRB03KT P6SM BKN060
       
KMHK 261127Z 2612/2712 22006KT P6SM FEW090
       
KMHR 261135Z 2612/2712 21006KT P6SM VCSH BKN050 OVC100 
     TEMPO 2614/2616 BKN025 
     FM270200 24006KT P6SM SCT250
       
KMHT 261133Z 2612/2712 29007KT P6SM SCT080 BKN200 
     FM262100 03007KT P6SM -SHRA BKN030 
     FM270100 04008KT 4SM -SHRA BR OVC015 
     FM270700 03009KT P6SM -SHRA BKN025
       
KMIA 261137Z 2612/2718 10008KT P6SM SHRA SCT020 SCT080 BKN120 
     FM261400 12012KT P6SM SHRA VCTS FEW007 SCT015 BKN035CB 
     FM261700 12015KT P6SM SHRA VCTS SCT010 BKN030CB 
     FM271000 15015KT P6SM SHRA VCTS SCT010 BKN030CB
       
TAF KMIB 260900Z 2609/2715 26006KT 9999 SKC QNH2968INS 
     BECMG 2617/2618 26010G15KT 9999 FEW100 QNH2965INS 
     BECMG 2623/2624 18006KT 9999 FEW080 QNH2964INS WND 14006KT AFT 2706 
     BECMG 2711/2712 12006KT 9999 SCT080 QNH2965INS 
     BECMG 2712/2713 09006KT 9000 -RA OVC050 QNH2974INS 
     TEMPO 2713/2715 09012KT 6000 -TSRA OVC050CB TX31/2622Z TN13/2611Z
       
KMIV 261135Z 2612/2712 23008KT P6SM SCT210 
     FM262000 22010KT P6SM VCTS BKN060CB 
     FM262100 22009KT P6SM BKN050 
     PROB30 2621/2624 5SM +TSRA BKN050CB 
     FM270000 23005KT P6SM +SHRA OVC070 
     PROB30 2700/2701 5SM TS OVC070CB 
     FM270200 21004KT P6SM OVC070 
     PROB30 2702/2704 5SM +SHRA 
     FM270400 20004KT P6SM +SHRA OVC070 
     FM270900 18006KT 3SM +SHRA OVC006
       
KMKE 261120Z 2612/2718 23009KT P6SM BKN250 
     FM261800 15008KT P6SM FEW250 
     FM270200 20004KT P6SM FEW250
       
KMKL 261129Z 2612/2712 19003KT P6SM SCT007 OVC100 
     FM261600 VRB03KT P6SM VCTS SCT040CB SCT250 
     FM270300 VRB03KT P6SM SCT060 BKN250
       
KMKT 261120Z 2612/2712 20005KT P6SM SKC 
     FM261600 27008KT P6SM SKC 
     FM270100 VRB03KT P6SM SKC
       
KMLB 261127Z 2612/2712 12009KT P6SM BKN250 
     FM261600 12012KT P6SM VCSH FEW020 SCT100 BKN200 
     FM262000 13012KT P6SM -RA VCSH SCT030 BKN080 OVC150 
     FM270100 13009KT P6SM VCSH SCT025 BKN100 OVC200 
     FM270800 13011KT P6SM -SHRA SCT020 OVC070
       
KMLI 261120Z 2612/2712 20006KT P6SM SCT070 BKN200 
     FM261500 23005KT P6SM SKC
       
KMLS 261120Z 2612/2712 15007KT P6SM SKC 
     FM270300 VRB05KT P6SM VCTS SCT120CB 
     FM270900 33009KT P6SM VCFG FEW002
       
KMLU 261324Z 2613/2712 VRB04KT P6SM SCT007 SCT150 SCT250 
     TEMPO 2613/2614 BKN005 
     FM261400 25005KT P6SM SCT030 BKN120 
     FM261700 27007KT P6SM VCTS BKN045CB OVC100 
     FM270100 VRB03KT P6SM BKN100 
     FM271000 07003KT 4SM BR SCT010 BKN100
       
KMMH 261120Z 2612/2712 28008KT P6SM SCT120 
     FM262000 30010G19KT P6SM VCSH SCT060 BKN080 
     FM270500 28008KT P6SM SCT080 SCT140
       
TAF AMD KMMT 260913Z 2609/2713 17006KT 0800 FG BKN002 QNH2996INS 
     TEMPO 2609/2615 4800 BR 
     BECMG 2614/2615 19009KT 9999 NSW SCT020 BKN030 QNH2995INS 
     BECMG 2617/2618 18012KT 4800 -SHRA OVC030 QNH2990INS 
     TEMPO 2621/2623 18010G15KT 4800 -TSRA OVC030CB 
     BECMG 2623/2624 19006KT 9999 NSW OVC030 QNH2991INS 
     BECMG 2705/2706 VRB06KT 9999 SCT005 BKN020 QNH2995INS 
     BECMG 2708/2709 VRB06KT 9999 BKN005 QNH2996INS TX29/2621Z TN20/2612Z
       
KMOB 261123Z 2612/2712 10007KT P6SM FEW010 BKN150 
     FM261800 15010KT P6SM VCSH BKN050 
     TEMPO 2618/2621 VRB15G25KT 4SM TSRA BKN025CB 
     FM262200 13005KT P6SM VCSH BKN100 
     FM270400 07004KT P6SM BKN250 
     FM270900 03005KT P6SM VCSH OVC100
       
KMOD 261135Z 2612/2712 35006KT P6SM SCT060 BKN100 
     FM270300 31009KT P6SM SKC
       
KMOT 261130Z 2612/2712 23009KT P6SM SKC 
     FM262200 12006KT P6SM SCT250 
     FM270700 18004KT P6SM BKN200
       
KMPV 261132Z 2612/2712 28005KT P6SM VCSH BKN060 
     FM261900 30007KT 5SM -SHRA BR OVC028 
     FM270000 02005KT P6SM VCSH OVC035 
     FM270500 11005KT P6SM BKN025
       
KMQY 261141Z 2612/2712 19004KT P6SM VCSH SCT040 SCT120 BKN250 
     FM262000 22006KT P6SM VCTS BKN040CB BKN120 BKN250 
     FM270300 18004KT P6SM VCSH SCT040 BKN100 BKN250
       
KMRY 261120Z 2612/2712 21003KT 6SM -DZ BR BKN004 OVC010 
     FM261600 25006KT P6SM BKN008 BKN016 
     FM261800 27010G16KT P6SM BKN012 BKN020 
     FM262000 26012G18KT P6SM SCT015 BKN022 
     FM270200 22008KT P6SM BKN010 OVC016 
     FM270600 VRB03KT P6SM OVC008
       
KMRB 261140Z 2612/2712 19004KT P6SM BKN100 
     FM261700 20007G15KT P6SM VCTS BKN050CB 
     FM262200 19006KT P6SM BKN060 
     FM270600 VRB03KT 5SM BR SCT080 
     FM270900 VRB03KT 3SM BR SCT080
       
KMSL 261135Z 2612/2712 VRB04KT P6SM SCT009 SCT250 
     TEMPO 2612/2615 BKN009 
     FM261500 17006KT P6SM SCT035 
     FM262000 20005KT 4SM -TSRA BKN035CB 
     FM270100 16005KT P6SM VCTS BKN035CB
       
KMSO 261321Z 2613/2712 VRB05KT 6SM BR MIFG FEW090 
     TEMPO 2613/2614 BKN008 
     FM261500 31007KT P6SM SCT090 
     FM262000 30011G19KT P6SM VCSH BKN070 
     FM270400 33006KT P6SM BKN070
       
KMSN 261120Z 2612/2712 23005KT P6SM SCT250
       
KMSP 261120Z 2612/2718 22005KT P6SM SKC 
     FM261500 27009KT P6SM SKC 
     FM262000 28009KT P6SM FEW080 
     FM270200 VRB03KT P6SM SKC 
     FM271500 21003KT P6SM SKC
       
KMSS 261132Z 2612/2712 21008KT P6SM VCSH BKN100 
     FM261600 09009KT P6SM VCSH OVC025 
     FM261800 05010KT P6SM VCSH OVC025 
     FM262300 06009KT P6SM BKN050
       
KMSY 261120Z 2612/2718 00000KT P6SM FEW019 SCT120 SCT250 
     TEMPO 2615/2619 4SM TSRA BKN020CB 
     FM261900 00000KT P6SM VCTS BKN030CB BKN200 
     FM270300 15004KT P6SM BKN040 BKN250 
     FM271300 06005KT P6SM VCTS BKN030CB 
     TEMPO 2715/2718 4SM TSRA BKN020CB
       
TAF KMTC 260900Z 2609/2715 22009KT 9999 SCT050 BKN150 QNH2976INS 
     TEMPO 2618/2621 25012G18KT 6000 -TSRA BKN045CB 
     BECMG 2622/2623 20006KT 9999 FEW040 SCT080 QNH2980INS 
     BECMG 2705/2706 17006KT 4800 BR FEW080 QNH2987INS 
     BECMG 2713/2714 16009KT 9999 NSW FEW100 QNH2995INS TX29/2620Z TN16/2609Z LAST NO AMDS AFT 2609 NEXT 2611
       
KMTH 261134Z 2612/2712 12011KT P6SM -RA SCT015 SCT060 OVC070 
     TEMPO 2612/2615 13015G25KT 3SM +SHRA BR BKN015 BKN040 
     FM261500 13015G26KT 5SM -RA VCSH SCT015 BKN040 OVC060 
     TEMPO 2615/2618 15017G27KT 1SM SHRA BR BKN012 OVC040 
     FM262000 15018G28KT 5SM -RA VCTS OVC015CB 
     PROB30 2621/2703 17019G34KT 1/2SM +TSRA FG BKN012CB OVC030
       
KMTJ 261139Z 2612/2712 13007KT P6SM SKC 
     FM261800 23010G20KT P6SM SCT250 
     FM262000 21018G28KT P6SM SCT250 
     FM270400 16012KT P6SM BKN200
       
KMTN 261140Z 2612/2712 16005KT P6SM BKN100 
     FM261900 17009G16KT P6SM VCTS BKN050CB 
     FM262200 20007KT P6SM BKN050 
     FM270800 VRB03KT 5SM BR SCT080
       
KMTW 261122Z 2612/2712 VRB03KT 6SM BR SCT003 
     TEMPO 2612/2614 P6SM NSW SCT140 SCT250 
     FM261400 23005KT P6SM SKC 
     FM261800 18009KT P6SM SCT060 BKN120 
     PROB30 2621/2701 5SM -TSRA BR BKN040CB 
     FM270100 17003KT P6SM VCSH SCT040 BKN080 
     FM270700 VRB03KT P6SM SCT080 SCT250 
     TEMPO 2708/2712 4SM BR
       
KMWH 261132Z 2612/2712 26009KT P6SM FEW120 
     TEMPO 2614/2617 28011G16KT 
     FM261800 24010G15KT P6SM SKC 
     FM270300 27008KT P6SM SKC 
     FM270900 28004KT P6SM FEW100
       
KMYL 261120Z 2612/2712 31010KT P6SM BKN050 
     TEMPO 2612/2614 1/2SM FG OVC001 
     FM262000 32010KT P6SM VCTS BKN050CB 
     TEMPO 2622/2702 VRB20G30KT -TSRA BKN050CB 
     FM270200 32010KT P6SM BKN100
       
KMYR 261209Z 2612/2712 20009KT P6SM VCSH SCT008 SCT250 
     TEMPO 2612/2613 BKN008 
     FM261300 20009KT P6SM VCSH SCT012 SCT025 SCT250 
     TEMPO 2613/2617 SCT012 BKN025 
     FM261700 18013KT P6SM SCT040 SCT070 SCT200 
     FM270500 22004KT P6SM SCT015 SCT080 BKN150 
     TEMPO 2709/2712 4SM BR BKN010